Time;durP1;ratioP1;P1;durP2;ratioP2;P2;SDS_P1;SDS_P2;PMS_P1;PMS_P2;Temp;Humidity;BMP_temperature;BMP_pressure;BME280_temperature;BME280_humidity;BME280_pressure;Samples;Min_cycle;Max_cycle;Signal;HPM_P1;HPM_P2
2022/03/07 00:03:49;;;;;;;24.90;13.77;;;5.30;74.70;;;;;;4998582;28;20045;-82
2022/03/07 00:06:53;;;;;;;23.83;14.52;;;5.30;74.60;;;;;;5013271;28;20127;-82
2022/03/07 00:09:37;;;;;;;23.85;14.93;;;5.20;74.40;;;;;;5037268;28;20589;-82
2022/03/07 00:12:39;;;;;;;21.63;13.75;;;5.20;74.60;;;;;;5039185;28;20101;-83
2022/03/07 00:15:06;;;;;;;23.48;14.20;;;5.20;74.60;;;;;;5117386;27;20039;-82
2022/03/07 00:18:36;;;;;;;20.77;13.90;;;5.20;74.20;;;;;;5120299;27;20028;-80
2022/03/07 00:28:17;;;;;;;30.30;14.30;;;5.20;75.00;;;;;;5003465;28;20066;-82
2022/03/07 00:56:12;;;;;;;22.33;14.38;;;5.00;74.60;;;;;;4945083;28;20487;-83
2022/03/07 01:34:02;;;;;;;25.45;15.65;;;4.80;73.80;;;;;;5034234;28;20072;-81
2022/03/07 02:05:04;;;;;;;27.77;15.60;;;4.60;75.30;;;;;;5123838;27;20500;-81
2022/03/07 03:52:59;;;;;;;29.70;17.30;;;4.00;76.60;;;;;;4974106;28;20498;-83
2022/03/07 03:55:32;;;;;;;29.70;15.80;;;4.00;77.00;;;;;;5107373;27;20043;-84
2022/03/07 03:58:15;;;;;;;32.33;17.23;;;4.00;77.00;;;;;;5124027;27;20106;-83
2022/03/07 04:00:50;;;;;;;29.13;16.55;;;4.00;77.10;;;;;;5098985;28;20084;-84
2022/03/07 04:10:43;;;;;;;27.75;16.30;;;3.90;77.10;;;;;;5124152;27;20135;-83
2022/03/07 04:48:04;;;;;;;29.25;18.35;;;3.50;78.20;;;;;;4938760;28;20071;-84
2022/03/07 04:53:54;;;;;;;30.65;18.55;;;3.50;78.70;;;;;;4875525;29;20101;-84
2022/03/07 04:57:05;;;;;;;28.42;18.80;;;3.40;79.10;;;;;;5014044;28;20038;-84
2022/03/07 05:03:21;;;;;;;29.30;17.88;;;3.40;79.20;;;;;;5014140;28;20032;-84
2022/03/07 05:20:23;;;;;;;32.80;19.75;;;3.20;80.10;;;;;;4996314;28;20037;-83
2022/03/07 05:28:30;;;;;;;30.05;19.83;;;3.20;80.30;;;;;;4945090;29;20118;-85
2022/03/07 05:37:58;;;;;;;29.33;18.70;;;3.20;80.20;;;;;;4920305;28;20594;-84
2022/03/07 05:40:24;;;;;;;35.22;20.77;;;3.10;80.40;;;;;;5076566;28;20046;-85
2022/03/07 05:42:56;;;;;;;31.50;20.27;;;3.10;80.50;;;;;;5119030;28;20031;-85
2022/03/07 05:45:22;;;;;;;27.27;18.23;;;3.10;81.10;;;;;;5106839;28;20110;-83
2022/03/07 05:50:59;;;;;;;32.30;19.00;;;3.10;80.80;;;;;;5071701;28;20048;-85
2022/03/07 05:53:27;;;;;;;30.38;17.55;;;3.10;80.40;;;;;;5126429;27;20039;-84
2022/03/07 05:55:54;;;;;;;37.58;20.60;;;3.10;80.30;;;;;;5106197;28;20112;-84
2022/03/07 05:58:22;;;;;;;30.08;19.88;;;3.10;80.40;;;;;;5107891;28;20094;-85
2022/03/07 06:00:54;;;;;;;28.25;20.33;;;3.10;80.70;;;;;;5104379;28;20076;-85
2022/03/07 06:03:20;;;;;;;23.48;15.20;;;3.10;80.30;;;;;;5109011;27;20027;-85
2022/03/07 06:06:15;;;;;;;33.40;19.92;;;3.00;80.20;;;;;;5106225;27;20036;-84
2022/03/07 06:09:08;;;;;;;22.55;13.68;;;3.00;80.40;;;;;;5117279;27;20019;-84
2022/03/07 06:11:57;;;;;;;37.90;21.38;;;3.00;80.30;;;;;;5102183;27;20054;-85
2022/03/07 06:14:26;;;;;;;25.50;14.20;;;3.10;80.70;;;;;;5103842;27;20019;-85
2022/03/07 06:17:17;;;;;;;;;;;;;;;;;;;;;
2022/03/07 06:19:59;;;;;;;29.00;16.40;;;3.10;80.60;;;;;;5120664;27;20527;-84
2022/03/07 06:22:46;;;;;;;27.47;18.77;;;3.10;80.40;;;;;;5123684;27;20428;-84
2022/03/07 06:25:29;;;;;;;30.83;17.75;;;3.10;80.30;;;;;;5121116;27;20118;-84
2022/03/07 06:27:58;;;;;;;26.35;18.20;;;3.10;80.30;;;;;;5101629;27;20047;-83
2022/03/07 06:30:38;;;;;;;31.27;19.08;;;3.10;80.80;;;;;;5118946;27;20035;-85
2022/03/07 06:33:10;;;;;;;30.08;19.17;;;3.10;80.70;;;;;;5123098;27;20479;-85
2022/03/07 06:35:51;;;;;;;32.35;20.67;;;3.10;80.70;;;;;;5109433;27;20030;-85
2022/03/07 06:38:48;;;;;;;36.20;19.67;;;3.10;80.70;;;;;;5103385;27;20072;-83
2022/03/07 06:41:15;;;;;;;36.58;19.52;;;3.10;80.30;;;;;;5101947;28;20485;-85
2022/03/07 06:44:07;;;;;;;30.90;17.83;;;3.20;80.20;;;;;;5106765;28;20538;-84
2022/03/07 06:46:36;;;;;;;31.40;17.55;;;3.20;80.00;;;;;;5107732;27;20024;-84
2022/03/07 06:49:14;;;;;;;28.77;17.08;;;3.30;79.80;;;;;;5100840;27;20457;-84
2022/03/07 06:51:51;;;;;;;31.27;18.98;;;3.40;79.30;;;;;;5105420;28;20570;-85
2022/03/07 06:54:20;;;;;;;28.85;18.05;;;3.50;79.20;;;;;;5126060;27;20027;-84
2022/03/07 06:57:03;;;;;;;25.88;17.63;;;3.60;78.60;;;;;;5125344;27;20023;-85
2022/03/07 06:59:44;;;;;;;31.90;19.60;;;3.80;77.90;;;;;;5106006;27;20073;-84
2022/03/07 07:02:36;;;;;;;27.67;18.23;;;3.90;77.80;;;;;;5120840;27;20055;-83
2022/03/07 07:05:12;;;;;;;31.55;19.33;;;3.90;77.50;;;;;;5112905;27;20187;-83
2022/03/07 07:07:47;;;;;;;34.30;20.50;;;3.90;77.50;;;;;;5113251;27;20106;-84
2022/03/07 07:10:57;;;;;;;28.13;19.20;;;3.90;78.00;;;;;;5129466;27;20477;-84
2022/03/07 07:13:42;;;;;;;28.27;18.80;;;4.00;77.30;;;;;;5125644;27;20035;-84
2022/03/07 07:16:08;;;;;;;32.35;19.13;;;4.10;77.10;;;;;;5122245;27;20026;-85
2022/03/07 07:18:39;;;;;;;30.27;17.58;;;4.10;77.00;;;;;;5121879;27;20031;-84
2022/03/07 07:21:08;;;;;;;35.97;19.13;;;4.10;76.60;;;;;;5108433;27;20594;-84
2022/03/07 07:23:39;;;;;;;31.58;19.08;;;4.20;76.80;;;;;;5122741;27;20073;-84
2022/03/07 07:26:06;;;;;;;25.67;16.55;;;4.20;76.70;;;;;;5118329;27;20039;-83
2022/03/07 07:28:43;;;;;;;31.15;17.92;;;4.30;76.20;;;;;;5110805;27;20150;-83
2022/03/07 07:31:31;;;;;;;28.42;18.33;;;4.30;76.40;;;;;;5107375;28;20043;-81
2022/03/07 07:34:30;;;;;;;32.90;19.80;;;4.40;75.90;;;;;;5099856;28;20043;-83
2022/03/07 07:37:08;;;;;;;27.67;15.75;;;4.40;76.10;;;;;;5082182;28;20039;-80
2022/03/07 07:39:52;;;;;;;29.10;18.67;;;4.50;75.60;;;;;;5105644;28;20022;-81
2022/03/07 07:42:28;;;;;;;29.98;17.15;;;4.50;75.70;;;;;;5084562;28;20085;-80
2022/03/07 07:44:54;;;;;;;23.10;14.88;;;4.60;75.20;;;;;;5101911;28;20027;-82
2022/03/07 07:47:20;;;;;;;31.42;19.13;;;4.60;75.40;;;;;;5101825;28;20020;-82
2022/03/07 07:49:46;;;;;;;34.67;20.05;;;4.60;75.20;;;;;;5103503;28;20595;-82
2022/03/07 07:52:14;;;;;;;31.00;19.60;;;4.70;75.60;;;;;;5100439;28;20062;-83
2022/03/07 07:54:45;;;;;;;30.35;18.33;;;4.70;75.60;;;;;;5102229;28;20016;-82
2022/03/07 07:57:12;;;;;;;31.25;19.20;;;4.70;74.40;;;;;;5094374;28;20063;-82
2022/03/07 07:59:44;;;;;;;30.10;20.73;;;4.70;74.70;;;;;;5098804;28;20065;-83
2022/03/07 08:02:13;;;;;;;31.38;20.33;;;4.80;75.30;;;;;;5078965;28;20032;-83
2022/03/07 08:04:39;;;;;;;26.60;16.67;;;4.80;74.60;;;;;;5100781;28;20115;-83
2022/03/07 08:07:31;;;;;;;26.80;15.57;;;4.80;74.40;;;;;;5100585;28;20597;-82
2022/03/07 08:10:23;;;;;;;22.98;16.48;;;4.80;75.00;;;;;;5079157;28;20467;-82
2022/03/07 08:13:02;;;;;;;30.27;22.05;;;4.70;74.80;;;;;;5104343;28;20436;-83
2022/03/07 08:15:29;;;;;;;31.02;19.33;;;4.80;75.00;;;;;;5089672;28;20031;-83
2022/03/07 08:18:28;;;;;;;26.35;16.90;;;4.90;75.00;;;;;;5103745;28;20523;-82
2022/03/07 08:20:59;;;;;;;24.52;16.50;;;5.00;74.60;;;;;;5089058;28;20089;-82
2022/03/07 08:23:42;;;;;;;31.23;18.88;;;5.00;73.90;;;;;;5102568;28;20429;-82
2022/03/07 08:26:11;;;;;;;36.20;20.27;;;5.20;74.30;;;;;;5098881;28;20028;-83
2022/03/07 08:28:42;;;;;;;33.17;21.13;;;5.20;73.90;;;;;;5087512;28;20056;-82
2022/03/07 08:31:12;;;;;;;32.92;19.40;;;5.30;73.20;;;;;;5124170;27;20076;-83
2022/03/07 08:33:38;;;;;;;32.53;21.33;;;5.30;72.80;;;;;;5100236;28;20049;-82
2022/03/07 08:36:27;;;;;;;;;;;;;;;;;;;;;
2022/03/07 08:38:53;;;;;;;30.52;19.10;;;5.30;72.10;;;;;;5114234;27;20046;-82
2022/03/07 08:41:34;;;;;;;31.35;19.55;;;5.40;72.30;;;;;;5119379;27;20548;-81
2022/03/07 08:44:00;;;;;;;27.48;20.02;;;5.50;72.20;;;;;;5131189;27;20019;-81
2022/03/07 08:46:27;;;;;;;31.38;19.65;;;5.60;72.10;;;;;;5136593;27;20639;-81
2022/03/07 08:49:05;;;;;;;24.50;16.73;;;5.60;71.30;;;;;;5135591;27;20118;-82
2022/03/07 08:51:31;;;;;;;23.85;16.98;;;5.70;71.80;;;;;;5117820;27;20043;-82
2022/03/07 08:53:57;;;;;;;28.25;20.25;;;5.80;71.20;;;;;;5139312;27;20007;-83
2022/03/07 08:56:34;;;;;;;28.00;19.15;;;5.80;70.80;;;;;;5140449;27;20050;-83
2022/03/07 08:59:02;;;;;;;25.27;16.65;;;5.80;70.60;;;;;;5106143;27;20028;-82
2022/03/07 09:01:36;;;;;;;29.58;20.10;;;5.70;71.80;;;;;;5123757;27;20015;-83
2022/03/07 09:04:06;;;;;;;31.23;20.38;;;5.80;71.20;;;;;;5118173;27;20055;-83
2022/03/07 09:06:32;;;;;;;25.20;19.17;;;6.00;70.90;;;;;;5119879;27;20065;-83
2022/03/07 09:09:07;;;;;;;31.73;20.15;;;6.10;71.10;;;;;;5119651;27;20130;-84
2022/03/07 09:11:33;;;;;;;30.02;20.20;;;6.30;70.00;;;;;;5108535;27;20038;-83
2022/03/07 09:13:59;;;;;;;29.58;19.42;;;6.30;69.30;;;;;;5119319;27;20027;-83
2022/03/07 09:16:28;;;;;;;30.92;20.15;;;6.30;70.10;;;;;;5104832;28;20074;-84
2022/03/07 09:18:57;;;;;;;28.05;18.83;;;6.40;69.10;;;;;;5098629;28;20367;-83
2022/03/07 09:21:29;;;;;;;30.67;18.73;;;6.50;68.90;;;;;;5123333;27;20038;-83
2022/03/07 09:24:18;;;;;;;30.23;18.80;;;6.40;68.10;;;;;;5121493;27;20024;-83
2022/03/07 09:26:46;;;;;;;23.05;15.13;;;6.40;68.00;;;;;;5126327;27;20070;-83
2022/03/07 09:30:06;;;;;;;24.83;15.93;;;6.40;68.80;;;;;;5121200;27;20051;-83
2022/03/07 09:32:25;;;;;;;28.60;18.20;;;6.50;68.80;;;;;;5119223;27;20034;-83
2022/03/07 09:34:54;;;;;;;25.02;17.48;;;6.50;68.10;;;;;;5122409;27;20041;-82
2022/03/07 09:37:20;;;;;;;33.83;19.45;;;6.60;67.70;;;;;;5130463;27;20033;-83
2022/03/07 09:39:47;;;;;;;41.08;18.30;;;6.70;67.90;;;;;;5123087;27;20016;-82
2022/03/07 09:42:13;;;;;;;34.00;18.70;;;6.80;67.50;;;;;;5122244;27;20034;-83
2022/03/07 09:44:39;;;;;;;29.85;20.30;;;6.90;67.60;;;;;;5126451;27;20051;-83
2022/03/07 09:47:14;;;;;;;26.73;18.70;;;6.80;67.00;;;;;;5106525;27;20291;-82
2022/03/07 09:50:08;;;;;;;29.10;19.00;;;6.90;67.30;;;;;;5120642;27;20023;-82
2022/03/07 09:52:41;;;;;;;38.00;21.10;;;7.10;67.30;;;;;;5113855;27;20027;-82
2022/03/07 09:55:43;;;;;;;30.42;19.67;;;7.10;67.10;;;;;;5123151;27;20019;-83
2022/03/07 10:01:17;;;;;;;28.27;20.10;;;7.20;66.50;;;;;;5079718;28;20561;-81
2022/03/07 10:03:43;;;;;;;27.88;19.58;;;7.40;65.90;;;;;;5119868;27;20055;-82
2022/03/07 10:06:21;;;;;;;25.35;17.35;;;7.50;66.20;;;;;;5109403;27;20069;-81
2022/03/07 10:09:01;;;;;;;26.17;19.67;;;7.60;65.50;;;;;;5116619;27;20395;-82
2022/03/07 10:11:29;;;;;;;27.52;19.25;;;7.60;66.00;;;;;;5128576;27;20508;-82
2022/03/07 10:13:57;;;;;;;29.02;20.10;;;7.80;65.30;;;;;;5120473;27;20030;-82
2022/03/07 10:16:23;;;;;;;43.45;18.42;;;7.90;65.30;;;;;;5122341;27;20022;-81
2022/03/07 10:19:08;;;;;;;28.75;17.73;;;8.00;65.10;;;;;;5123757;27;20024;-81
2022/03/07 10:22:10;;;;;;;26.25;19.25;;;8.00;64.30;;;;;;5122295;27;20015;-82
2022/03/07 10:25:13;;;;;;;31.80;18.65;;;8.10;64.60;;;;;;5077884;27;20441;-82
2022/03/07 10:27:53;;;;;;;24.10;19.15;;;8.10;63.70;;;;;;5092055;27;20039;-82
2022/03/07 10:30:39;;;;;;;30.35;20.33;;;8.00;64.50;;;;;;5089404;28;20472;-82
2022/03/07 10:33:15;;;;;;;25.73;18.60;;;8.00;63.90;;;;;;5084637;28;20024;-82
2022/03/07 10:35:47;;;;;;;29.08;19.83;;;8.00;63.20;;;;;;5106583;28;20612;-81
2022/03/07 10:38:22;;;;;;;28.50;18.58;;;8.00;63.70;;;;;;5084327;28;20020;-82
2022/03/07 10:40:53;;;;;;;26.90;19.50;;;8.00;63.30;;;;;;5106814;28;20386;-82
2022/03/07 10:43:51;;;;;;;26.88;18.02;;;8.10;63.70;;;;;;5102731;28;20083;-81
2022/03/07 10:46:42;;;;;;;31.08;19.10;;;8.10;62.50;;;;;;5105715;28;20024;-82
2022/03/07 10:49:16;;;;;;;25.07;16.67;;;8.00;63.90;;;;;;5105225;28;20038;-82
2022/03/07 10:52:26;;;;;;;26.25;17.95;;;8.30;62.90;;;;;;5103883;28;20055;-82
2022/03/07 10:55:29;;;;;;;25.65;15.68;;;8.50;62.90;;;;;;5104777;28;20289;-82
2022/03/07 10:58:20;;;;;;;31.70;18.40;;;8.60;61.60;;;;;;5095311;28;20028;-82
2022/03/07 11:04:18;;;;;;;23.85;18.05;;;8.30;61.40;;;;;;5073508;28;20043;-82
2022/03/07 11:06:52;;;;;;;28.25;18.60;;;8.40;62.00;;;;;;5103639;28;20115;-81
2022/03/07 11:09:18;;;;;;;23.95;16.75;;;8.60;61.80;;;;;;5105726;28;20024;-82
2022/03/07 11:11:52;;;;;;;28.48;18.38;;;8.70;62.00;;;;;;5102167;28;20119;-82
2022/03/07 11:14:33;;;;;;;22.83;16.13;;;8.70;61.60;;;;;;5100140;28;20020;-81
2022/03/07 11:17:02;;;;;;;25.33;18.13;;;8.70;60.40;;;;;;5102707;28;20035;-82
2022/03/07 11:19:28;;;;;;;25.30;17.13;;;8.60;63.70;;;;;;5105580;28;20028;-82
2022/03/07 11:22:13;;;;;;;31.38;18.65;;;9.10;60.80;;;;;;5102934;28;20039;-82
2022/03/07 11:24:46;;;;;;;32.42;18.80;;;9.20;60.10;;;;;;5097804;28;20076;-82
2022/03/07 11:27:24;;;;;;;29.90;18.90;;;9.50;60.80;;;;;;5102122;28;20052;-82
2022/03/07 11:29:58;;;;;;;27.05;17.95;;;9.60;58.80;;;;;;5100433;28;20077;-82
2022/03/07 11:32:38;;;;;;;23.52;17.10;;;9.60;60.20;;;;;;5100245;28;20028;-81
2022/03/07 11:35:04;;;;;;;30.92;18.35;;;9.70;58.50;;;;;;5106547;28;20023;-82
2022/03/07 11:37:32;;;;;;;26.50;17.98;;;9.60;59.60;;;;;;5100539;28;20080;-82
2022/03/07 11:39:58;;;;;;;26.40;17.90;;;9.70;59.40;;;;;;5099497;28;20024;-82
2022/03/07 11:42:37;;;;;;;26.55;18.20;;;9.80;58.80;;;;;;5102987;28;20020;-82
2022/03/07 11:45:16;;;;;;;25.00;17.52;;;9.70;58.60;;;;;;5099823;28;20470;-81
2022/03/07 11:47:47;;;;;;;29.40;19.70;;;9.70;58.50;;;;;;5093506;28;20024;-83
2022/03/07 11:50:15;;;;;;;26.98;18.92;;;9.80;58.70;;;;;;5096233;28;20028;-82
2022/03/07 11:52:47;;;;;;;25.98;18.08;;;9.70;58.10;;;;;;5085827;28;20036;-82
2022/03/07 11:55:21;;;;;;;24.52;17.60;;;9.90;58.40;;;;;;5097155;28;20024;-83
2022/03/07 11:57:59;;;;;;;23.80;16.85;;;10.00;59.30;;;;;;5105590;28;20030;-81
2022/03/07 12:00:32;;;;;;;26.95;17.77;;;10.30;57.30;;;;;;5088689;28;20103;-84
2022/03/07 12:03:22;;;;;;;28.92;18.48;;;10.20;57.40;;;;;;5102893;28;20527;-83
2022/03/07 12:06:06;;;;;;;22.60;16.95;;;10.20;57.20;;;;;;5102159;28;20023;-83
2022/03/07 12:08:56;;;;;;;26.20;17.55;;;10.20;58.40;;;;;;5080681;28;20173;-84
2022/03/07 12:11:32;;;;;;;25.83;17.80;;;10.60;58.30;;;;;;5087028;28;20032;-86
2022/03/07 12:14:16;;;;;;;24.63;17.75;;;10.80;57.00;;;;;;5082295;28;20047;-88
2022/03/07 12:16:49;;;;;;;23.02;16.88;;;10.80;55.90;;;;;;5102608;28;20639;-77
2022/03/07 12:19:24;;;;;;;22.45;17.25;;;10.80;55.60;;;;;;5100407;28;20031;-84
2022/03/07 12:22:19;;;;;;;27.45;17.55;;;10.50;58.60;;;;;;5099904;28;20043;-84
2022/03/07 12:24:46;;;;;;;20.63;15.80;;;10.90;56.30;;;;;;5082419;28;20593;-83
2022/03/07 12:27:15;;;;;;;23.48;16.02;;;12.00;55.50;;;;;;5083284;28;20044;-82
2022/03/07 12:29:43;;;;;;;25.70;16.30;;;14.90;52.10;;;;;;5106739;28;20069;-94
2022/03/07 12:32:20;;;;;;;39.08;16.52;;;17.20;47.60;;;;;;5109764;28;20036;-91
2022/03/07 12:34:52;;;;;;;22.88;15.73;;;18.20;46.80;;;;;;5082449;28;20130;-85
2022/03/07 12:37:28;;;;;;;22.50;16.70;;;19.00;45.50;;;;;;5126374;28;20051;-89
2022/03/07 12:40:06;;;;;;;21.23;16.42;;;19.00;43.70;;;;;;5112596;28;20606;-84
2022/03/07 12:42:42;;;;;;;22.02;16.70;;;19.10;45.60;;;;;;5086419;28;20045;-85
2022/03/07 12:45:16;;;;;;;19.77;15.85;;;19.90;43.20;;;;;;5126892;28;20031;-79
2022/03/07 12:47:43;;;;;;;19.90;14.88;;;19.80;43.20;;;;;;5115936;28;20020;-80
2022/03/07 12:50:11;;;;;;;22.92;16.27;;;20.60;42.50;;;;;;5107394;28;20027;-80
2022/03/07 12:52:42;;;;;;;21.85;17.40;;;21.00;40.60;;;;;;5091802;28;20027;-80
2022/03/07 12:55:17;;;;;;;25.52;17.35;;;20.80;41.40;;;;;;5106327;28;20031;-82
2022/03/07 12:57:43;;;;;;;24.35;16.63;;;20.90;40.90;;;;;;5091639;28;20060;-81
2022/03/07 13:00:19;;;;;;;24.15;16.58;;;21.30;40.10;;;;;;5098233;28;20102;-81
2022/03/07 13:02:58;;;;;;;23.48;16.13;;;21.50;40.20;;;;;;5093778;28;20039;-80
2022/03/07 13:05:24;;;;;;;20.30;15.57;;;22.20;38.80;;;;;;5086364;28;20024;-82
2022/03/07 13:08:01;;;;;;;22.65;16.52;;;22.30;38.30;;;;;;5108131;28;20015;-82
2022/03/07 13:10:29;;;;;;;20.30;16.08;;;21.50;39.00;;;;;;5072134;28;20034;-82
2022/03/07 13:12:57;;;;;;;20.85;15.40;;;21.00;38.90;;;;;;5101971;28;20039;-81
2022/03/07 13:15:24;;;;;;;20.98;15.73;;;21.90;38.60;;;;;;5079533;28;20523;-81
2022/03/07 13:18:06;;;;;;;21.30;17.20;;;23.50;37.80;;;;;;5101162;28;20045;-80
2022/03/07 13:20:33;;;;;;;25.85;16.67;;;20.70;39.60;;;;;;5090634;28;20101;-81
2022/03/07 13:23:00;;;;;;;25.20;17.05;;;21.30;40.10;;;;;;5083554;28;20786;-82
2022/03/07 13:25:34;;;;;;;22.00;17.05;;;23.50;38.70;;;;;;5096790;28;20688;-81
2022/03/07 13:28:00;;;;;;;20.70;15.27;;;24.70;36.50;;;;;;5109395;28;20050;-81
2022/03/07 13:30:29;;;;;;;20.67;15.52;;;26.20;35.10;;;;;;5127498;27;20377;-81
2022/03/07 13:33:06;;;;;;;22.75;16.33;;;26.60;34.40;;;;;;5120419;27;20028;-81
2022/03/07 13:35:40;;;;;;;19.27;16.20;;;26.70;33.50;;;;;;5121269;28;20024;-80
2022/03/07 13:38:08;;;;;;;20.98;15.73;;;26.00;33.50;;;;;;5120377;28;20024;-82
2022/03/07 13:40:37;;;;;;;18.75;15.73;;;24.80;34.50;;;;;;5106168;28;20088;-82
2022/03/07 13:43:04;;;;;;;22.90;15.88;;;24.80;34.50;;;;;;5121801;28;20030;-81
2022/03/07 13:45:37;;;;;;;18.98;15.30;;;24.70;34.40;;;;;;5096662;28;20123;-80
2022/03/07 13:48:10;;;;;;;18.70;14.48;;;25.70;33.60;;;;;;5122188;27;20023;-81
2022/03/07 13:50:44;;;;;;;19.17;14.95;;;25.70;33.60;;;;;;5117635;28;20030;-80
2022/03/07 13:53:15;;;;;;;20.20;15.18;;;25.30;32.70;;;;;;5103777;28;20027;-80
2022/03/07 13:55:47;;;;;;;19.98;14.95;;;25.70;32.90;;;;;;5119286;28;20450;-79
2022/03/07 13:58:22;;;;;;;17.85;15.95;;;25.50;33.10;;;;;;5124570;28;20027;-81
2022/03/07 14:00:51;;;;;;;19.17;15.77;;;25.50;33.10;;;;;;5125111;27;20030;-80
2022/03/07 14:03:18;;;;;;;22.13;16.67;;;24.80;34.20;;;;;;5119951;27;20023;-80
2022/03/07 14:05:46;;;;;;;18.83;16.52;;;25.20;33.30;;;;;;5103326;28;20509;-81
2022/03/07 14:08:30;;;;;;;22.35;17.70;;;25.70;32.90;;;;;;5103365;27;20076;-80
2022/03/07 14:11:01;;;;;;;25.80;16.40;;;25.70;32.90;;;;;;5124321;27;20032;-81
2022/03/07 14:13:48;;;;;;;23.10;16.70;;;25.90;32.40;;;;;;5107513;28;20023;-80
2022/03/07 14:16:37;;;;;;;17.88;15.93;;;26.50;32.10;;;;;;5121650;27;20051;-80
2022/03/07 14:19:20;;;;;;;18.48;15.60;;;25.90;32.20;;;;;;5121064;27;20023;-79
2022/03/07 14:22:30;;;;;;;19.70;15.45;;;26.20;32.50;;;;;;5105210;27;20023;-77
2022/03/07 14:24:57;;;;;;;21.25;15.57;;;26.70;31.50;;;;;;5121103;27;20043;-78
2022/03/07 14:28:10;;;;;;;19.33;16.10;;;26.50;31.30;;;;;;5129638;27;20031;-86
2022/03/07 14:30:36;;;;;;;22.45;16.40;;;26.10;32.10;;;;;;5114311;27;20059;-78
2022/03/07 14:33:08;;;;;;;21.80;15.80;;;25.70;32.50;;;;;;5125442;27;20107;-77
2022/03/07 14:35:46;;;;;;;;;;;24.90;32.40;;;;;;5121304;27;20359;-78
2022/03/07 14:38:30;;;;;;;21.40;15.88;;;24.80;32.10;;;;;;5126265;27;20273;-77
2022/03/07 14:40:56;;;;;;;22.30;16.10;;;25.20;32.00;;;;;;5124269;27;20528;-77
2022/03/07 14:43:29;;;;;;;17.30;15.30;;;25.00;32.50;;;;;;5123830;27;20030;-78
2022/03/07 14:45:55;;;;;;;23.60;16.25;;;25.30;32.50;;;;;;5127165;27;20076;-81
2022/03/07 14:48:21;;;;;;;19.08;15.77;;;25.70;32.20;;;;;;5122264;27;20028;-77
2022/03/07 14:51:05;;;;;;;17.60;15.70;;;26.00;31.80;;;;;;5102083;28;20026;-76
2022/03/07 14:53:45;;;;;;;19.85;16.05;;;26.00;31.90;;;;;;5126693;27;20031;-78
2022/03/07 14:56:12;;;;;;;19.05;16.48;;;24.90;31.90;;;;;;5121364;27;20713;-78
2022/03/07 14:58:38;;;;;;;26.27;16.88;;;24.80;32.40;;;;;;5126366;27;20031;-77
2022/03/07 15:01:04;;;;;;;19.42;17.33;;;24.90;32.40;;;;;;5125420;27;20080;-77
2022/03/07 15:03:52;;;;;;;29.70;17.20;;;24.70;32.30;;;;;;5122495;27;20423;-77
2022/03/07 15:06:46;;;;;;;39.45;31.67;;;24.20;32.40;;;;;;5101536;27;20051;-79
2022/03/07 15:09:21;;;;;;;32.00;25.02;;;24.50;32.60;;;;;;5107319;27;20042;-79
2022/03/07 15:12:08;;;;;;;24.95;18.27;;;24.40;32.50;;;;;;5123254;27;20039;-79
2022/03/07 15:14:40;;;;;;;18.48;16.40;;;24.20;32.80;;;;;;5120373;27;20030;-79
2022/03/07 15:17:08;;;;;;;22.05;16.90;;;23.80;33.40;;;;;;5100762;27;20022;-77
2022/03/07 15:19:53;;;;;;;24.85;17.65;;;23.40;33.80;;;;;;5116221;27;20521;-77
2022/03/07 15:22:21;;;;;;;28.40;18.48;;;23.00;34.10;;;;;;5103024;27;20099;-76
2022/03/07 15:24:51;;;;;;;25.92;19.27;;;22.70;34.60;;;;;;5111406;27;20022;-76
2022/03/07 15:27:21;;;;;;;27.05;18.85;;;22.50;34.10;;;;;;5130648;27;20061;-77
2022/03/07 15:30:09;;;;;;;23.00;18.33;;;21.50;35.30;;;;;;5121170;27;20112;-78
2022/03/07 15:33:01;;;;;;;26.38;19.38;;;20.50;36.30;;;;;;5102932;27;20039;-77
2022/03/07 15:35:50;;;;;;;25.52;18.02;;;19.70;38.00;;;;;;5111902;27;20019;-79
2022/03/07 15:38:16;;;;;;;36.15;22.70;;;19.60;37.10;;;;;;5111534;27;20482;-79
2022/03/07 15:40:42;;;;;;;26.02;19.88;;;19.10;38.70;;;;;;5119905;27;20055;-78
2022/03/07 15:43:08;;;;;;;25.83;19.08;;;18.70;38.70;;;;;;5123903;27;20497;-77
2022/03/07 15:45:35;;;;;;;21.98;17.50;;;18.80;38.70;;;;;;5119357;27;20059;-81
2022/03/07 15:48:01;;;;;;;22.75;18.90;;;18.80;38.80;;;;;;5105463;27;20023;-77
2022/03/07 15:50:34;;;;;;;22.50;17.80;;;18.30;39.20;;;;;;5119413;27;20068;-77
2022/03/07 15:53:03;;;;;;;24.23;18.73;;;17.70;39.90;;;;;;5125341;27;20035;-76
2022/03/07 15:55:29;;;;;;;28.80;20.30;;;17.20;40.50;;;;;;5119218;27;20051;-81
2022/03/07 15:58:02;;;;;;;25.20;18.35;;;17.20;40.70;;;;;;5129111;27;20130;-77
2022/03/07 16:00:30;;;;;;;28.40;19.08;;;17.30;41.00;;;;;;5107343;27;20031;-76
2022/03/07 16:03:02;;;;;;;27.88;20.88;;;17.40;40.70;;;;;;5103219;28;20027;-76
2022/03/07 16:05:28;;;;;;;29.27;19.77;;;17.30;40.60;;;;;;5125901;27;20481;-76
2022/03/07 16:07:54;;;;;;;31.92;20.83;;;17.10;40.70;;;;;;5123607;27;20106;-77
2022/03/07 16:10:32;;;;;;;30.65;18.25;;;16.70;41.10;;;;;;5117754;27;20118;-77
2022/03/07 16:13:08;;;;;;;24.35;16.95;;;16.20;41.70;;;;;;5120842;27;20077;-77
2022/03/07 16:15:34;;;;;;;29.02;21.15;;;15.90;42.90;;;;;;5124919;27;20024;-75
2022/03/07 16:18:01;;;;;;;27.02;19.90;;;15.90;42.40;;;;;;5119833;27;20046;-80
2022/03/07 16:21:10;;;;;;;27.58;19.15;;;15.70;42.40;;;;;;5126142;27;20477;-77
2022/03/07 16:23:43;;;;;;;23.70;19.05;;;14.90;43.20;;;;;;5105050;27;20594;-77
2022/03/07 16:26:09;;;;;;;25.88;19.30;;;13.60;44.90;;;;;;5119749;27;20019;-77
2022/03/07 16:28:41;;;;;;;28.63;18.98;;;12.90;46.30;;;;;;5123075;27;20053;-76
2022/03/07 16:31:28;;;;;;;33.55;20.55;;;12.20;47.10;;;;;;5118391;27;20120;-78
2022/03/07 16:34:00;;;;;;;33.50;20.38;;;11.70;48.70;;;;;;5118415;27;20510;-76
2022/03/07 16:36:32;;;;;;;33.03;21.80;;;11.30;49.30;;;;;;5123637;27;20033;-76
2022/03/07 16:38:58;;;;;;;28.93;21.07;;;10.80;49.80;;;;;;5120236;27;20027;-78
2022/03/07 16:41:30;;;;;;;34.50;19.85;;;10.40;51.00;;;;;;5119331;27;20280;-79
2022/03/07 16:43:56;;;;;;;29.42;20.90;;;10.20;51.40;;;;;;5120285;27;20028;-77
2022/03/07 16:46:27;;;;;;;32.40;20.40;;;9.60;51.00;;;;;;5121491;27;20023;-77
2022/03/07 16:49:00;;;;;;;29.60;20.08;;;9.40;52.00;;;;;;5125382;27;20496;-77
2022/03/07 16:51:26;;;;;;;32.72;19.25;;;9.10;52.30;;;;;;5121610;27;20080;-77
2022/03/07 16:53:55;;;;;;;41.00;22.08;;;8.70;53.20;;;;;;5115344;27;20035;-77
2022/03/07 16:56:21;;;;;;;34.42;21.05;;;8.50;53.80;;;;;;5117414;27;20019;-77
2022/03/07 16:59:28;;;;;;;30.20;19.83;;;8.40;54.00;;;;;;5119673;27;20077;-77
2022/03/07 17:01:56;;;;;;;27.60;18.67;;;8.30;54.40;;;;;;5119116;27;20036;-78
2022/03/07 17:04:22;;;;;;;33.95;19.02;;;8.10;54.60;;;;;;5121654;27;20028;-78
2022/03/07 17:06:51;;;;;;;29.55;20.65;;;7.90;55.10;;;;;;5122191;27;20019;-77
2022/03/07 17:09:21;;;;;;;28.42;19.25;;;7.80;55.30;;;;;;5118288;27;20546;-76
2022/03/07 17:11:51;;;;;;;31.75;20.80;;;7.60;55.40;;;;;;5113842;28;20067;-76
2022/03/07 17:14:17;;;;;;;29.00;20.65;;;7.40;55.90;;;;;;5100419;28;20024;-77
2022/03/07 17:16:44;;;;;;;31.33;21.35;;;7.40;56.30;;;;;;5122595;27;20031;-78
2022/03/07 17:19:15;;;;;;;29.65;20.65;;;7.30;56.80;;;;;;5117277;27;20107;-77
2022/03/07 17:21:59;;;;;;;29.27;20.10;;;7.20;56.90;;;;;;5121562;28;20080;-77
2022/03/07 17:24:25;;;;;;;35.40;20.00;;;7.10;57.20;;;;;;5121554;27;20035;-77
2022/03/07 17:27:09;;;;;;;29.83;20.10;;;7.10;57.40;;;;;;5119280;27;20031;-77
2022/03/07 17:29:38;;;;;;;28.05;20.40;;;7.00;57.30;;;;;;5095609;28;20035;-76
2022/03/07 17:32:13;;;;;;;32.80;21.20;;;6.90;57.80;;;;;;5096280;28;20036;-77
2022/03/07 17:34:43;;;;;;;28.42;20.20;;;6.90;58.10;;;;;;5095828;28;21094;-77
2022/03/07 17:37:14;;;;;;;32.72;21.08;;;6.80;58.40;;;;;;5100254;28;20026;-76
2022/03/07 17:39:43;;;;;;;34.25;19.67;;;6.60;58.60;;;;;;5097503;28;20065;-77
2022/03/07 17:42:09;;;;;;;27.08;19.60;;;6.60;58.80;;;;;;5100767;28;20016;-77
2022/03/07 17:44:35;;;;;;;31.08;20.88;;;6.50;58.80;;;;;;5100694;28;20373;-76
2022/03/07 17:47:02;;;;;;;30.75;20.42;;;6.50;59.20;;;;;;5103994;28;20099;-77
2022/03/07 17:49:28;;;;;;;30.65;19.77;;;6.40;59.50;;;;;;5101669;28;20020;-77
2022/03/07 17:52:01;;;;;;;31.73;21.73;;;6.40;59.60;;;;;;5104129;28;20515;-76
2022/03/07 17:54:27;;;;;;;31.48;21.27;;;6.40;59.60;;;;;;5101860;28;20667;-77
2022/03/07 17:57:21;;;;;;;31.85;20.80;;;6.30;59.70;;;;;;5103829;28;20161;-76
2022/03/07 17:59:52;;;;;;;35.67;21.65;;;6.30;60.00;;;;;;5101863;28;20028;-77
2022/03/07 18:02:18;;;;;;;29.92;20.27;;;6.20;60.50;;;;;;5103360;28;20537;-78
2022/03/07 18:04:44;;;;;;;34.13;23.08;;;6.20;60.30;;;;;;5095282;28;20028;-77
2022/03/07 18:07:10;;;;;;;31.13;21.95;;;6.10;60.10;;;;;;5085109;28;20028;-77